Time;durP1;ratioP1;P1;durP2;ratioP2;P2;SDS_P1;SDS_P2;PMS_P1;PMS_P2;Temp;Humidity;BMP_temperature;BMP_pressure;BME280_temperature;BME280_humidity;BME280_pressure;Samples;Min_cycle;Max_cycle;Signal;HPM_P1;HPM_P2
2021/11/06 00:00:24;;;;;;;15.97;8.90;;;7.20;1.00;;;;;;4994017;28;20645;-82
2021/11/06 00:02:50;;;;;;;14.33;8.70;;;7.20;1.00;;;;;;5001954;28;20208;-82
2021/11/06 00:05:16;;;;;;;12.67;8.03;;;7.20;1.00;;;;;;4987047;28;20547;-82
2021/11/06 00:07:43;;;;;;;16.67;9.50;;;7.20;1.00;;;;;;4981612;28;20694;-81
2021/11/06 00:10:10;;;;;;;12.40;9.07;;;7.20;1.00;;;;;;4999441;28;20604;-81
2021/11/06 00:12:38;;;;;;;14.57;8.17;;;7.10;1.00;;;;;;4999038;28;20538;-81
2021/11/06 00:15:05;;;;;;;10.30;7.30;;;7.10;1.00;;;;;;4997889;28;20465;-81
2021/11/06 00:17:31;;;;;;;14.43;6.97;;;7.10;1.00;;;;;;4997140;28;20838;-81
2021/11/06 00:19:57;;;;;;;13.90;7.47;;;7.00;1.00;;;;;;5000892;28;20439;-82
2021/11/06 00:22:26;;;;;;;14.83;7.00;;;7.00;1.90;;;;;;5003598;28;20180;-81
2021/11/06 00:24:52;;;;;;;11.07;6.03;;;7.00;1.00;;;;;;5004707;28;20255;-81
2021/11/06 00:27:18;;;;;;;12.10;6.83;;;7.00;1.00;;;;;;4999853;28;20446;-81
2021/11/06 00:29:44;;;;;;;18.23;6.60;;;6.90;1.00;;;;;;4993738;28;20862;-81
2021/11/06 00:32:10;;;;;;;10.90;6.13;;;7.00;1.00;;;;;;5001641;28;20179;-82
2021/11/06 00:34:35;;;;;;;18.80;6.37;;;7.00;9.40;;;;;;5000690;28;20215;-83
2021/11/06 00:37:01;;;;;;;9.20;5.60;;;7.00;1.00;;;;;;5002033;28;20949;-82
2021/11/06 00:39:27;;;;;;;10.30;6.90;;;7.00;1.00;;;;;;5000329;28;20199;-82
2021/11/06 00:41:52;;;;;;;8.17;5.77;;;7.00;1.00;;;;;;5004429;28;20203;-82
2021/11/06 00:44:18;;;;;;;10.00;6.27;;;7.00;1.00;;;;;;4998150;28;20734;-82
2021/11/06 00:46:45;;;;;;;12.40;5.87;;;7.00;1.00;;;;;;5001077;28;21160;-82
2021/11/06 00:49:11;;;;;;;9.77;6.60;;;7.00;1.00;;;;;;5001995;28;20723;-82
2021/11/06 00:51:36;;;;;;;11.60;6.00;;;7.10;1.00;;;;;;4998720;28;20497;-82
2021/11/06 00:54:02;;;;;;;11.70;6.40;;;7.00;1.00;;;;;;5004317;28;20548;-82
2021/11/06 00:56:28;;;;;;;7.93;6.03;;;7.00;1.00;;;;;;5001486;28;20215;-81
2021/11/06 00:58:54;;;;;;;14.23;6.97;;;7.00;1.00;;;;;;4999294;28;20612;-81
2021/11/06 01:01:19;;;;;;;8.03;5.80;;;7.00;1.00;;;;;;5000076;28;20575;-81
2021/11/06 01:03:45;;;;;;;16.63;6.70;;;7.00;1.00;;;;;;4997933;28;20250;-81
2021/11/06 01:06:11;;;;;;;12.73;6.27;;;6.90;1.00;;;;;;4999978;28;20188;-83
2021/11/06 01:08:37;;;;;;;12.97;7.33;;;6.90;1.00;;;;;;4996185;28;22468;-82
2021/11/06 01:11:03;;;;;;;11.70;7.27;;;6.80;1.00;;;;;;4996706;28;20720;-82
2021/11/06 01:13:29;;;;;;;18.87;8.57;;;6.90;1.00;;;;;;4999557;28;22040;-82
2021/11/06 01:15:55;;;;;;;13.80;9.47;;;6.90;1.00;;;;;;4999043;28;20873;-82
2021/11/06 01:18:20;;;;;;;11.70;8.80;;;6.80;1.00;;;;;;4999644;28;20498;-82
2021/11/06 01:20:46;;;;;;;16.70;10.33;;;6.80;2.10;;;;;;4994064;28;20195;-83
2021/11/06 01:23:12;;;;;;;20.33;11.40;;;6.70;6.20;;;;;;4996893;28;20188;-83
2021/11/06 01:25:38;;;;;;;21.30;11.17;;;6.80;12.90;;;;;;4985021;28;20191;-82
2021/11/06 01:28:04;;;;;;;19.17;12.07;;;6.80;10.00;;;;;;4999534;28;20279;-82
2021/11/06 01:30:29;;;;;;;17.07;11.67;;;6.90;12.90;;;;;;4997476;28;20464;-81
2021/11/06 01:32:55;;;;;;;18.20;12.57;;;6.90;8.10;;;;;;4994790;28;20304;-81
2021/11/06 01:35:21;;;;;;;21.37;14.23;;;6.90;12.40;;;;;;4993712;28;20184;-81
2021/11/06 01:37:47;;;;;;;23.20;14.77;;;6.90;11.90;;;;;;5004968;28;20187;-82
2021/11/06 01:40:15;;;;;;;25.80;15.10;;;6.80;4.30;;;;;;4986261;28;20185;-82
2021/11/06 01:42:42;;;;;;;19.87;14.90;;;6.70;6.90;;;;;;4996812;28;20196;-82
2021/11/06 01:45:09;;;;;;;21.60;16.70;;;6.70;11.80;;;;;;4995525;28;20442;-82
2021/11/06 01:47:34;;;;;;;18.87;16.10;;;6.70;19.10;;;;;;5003719;28;20505;-81
2021/11/06 01:50:01;;;;;;;26.33;16.40;;;6.70;28.40;;;;;;5004381;28;20482;-82
2021/11/06 01:52:26;;;;;;;21.67;15.67;;;6.70;17.20;;;;;;5010191;28;20872;-82
2021/11/06 01:54:52;;;;;;;23.20;17.50;;;6.80;28.30;;;;;;5004729;28;20464;-81
2021/11/06 01:57:18;;;;;;;24.00;16.63;;;6.70;24.30;;;;;;5006071;28;20196;-81
2021/11/06 01:59:45;;;;;;;24.20;16.27;;;6.70;27.30;;;;;;5000693;28;22485;-81
2021/11/06 02:02:11;;;;;;;22.40;15.87;;;6.70;19.10;;;;;;4997076;28;20446;-81
2021/11/06 02:04:38;;;;;;;28.67;16.87;;;6.60;17.30;;;;;;5004386;28;20964;-81
2021/11/06 02:07:04;;;;;;;22.63;16.40;;;6.70;19.60;;;;;;5006614;28;20781;-81
2021/11/06 02:09:30;;;;;;;22.53;16.80;;;6.60;21.50;;;;;;5000000;28;20472;-82
2021/11/06 02:11:57;;;;;;;22.67;15.40;;;6.70;24.70;;;;;;5013375;28;20755;-82
2021/11/06 02:14:24;;;;;;;24.43;15.67;;;6.60;15.40;;;;;;5004292;28;20928;-82
2021/11/06 02:16:52;;;;;;;18.17;13.43;;;6.60;10.80;;;;;;5001584;28;20461;-82
2021/11/06 02:19:24;;;;;;;21.97;14.10;;;6.60;14.80;;;;;;5015690;28;21050;-82
2021/11/06 02:21:51;;;;;;;18.07;12.03;;;6.60;5.50;;;;;;5007212;28;20628;-82
2021/11/06 02:24:17;;;;;;;24.23;12.43;;;6.60;2.50;;;;;;5005380;28;20447;-82
2021/11/06 02:26:43;;;;;;;20.03;10.93;;;6.50;6.70;;;;;;5002417;28;20450;-82
2021/11/06 02:29:08;;;;;;;29.60;12.03;;;6.60;5.40;;;;;;5001832;28;20196;-82
2021/11/06 02:31:34;;;;;;;27.13;13.50;;;6.50;1.60;;;;;;4988852;28;20188;-82
2021/11/06 02:34:00;;;;;;;29.77;12.30;;;6.50;1.00;;;;;;4999975;28;20232;-82
2021/11/06 02:36:25;;;;;;;26.67;11.60;;;6.50;1.00;;;;;;5000989;28;20245;-83
2021/11/06 02:38:51;;;;;;;18.37;10.40;;;6.50;1.00;;;;;;5004996;28;20599;-82
2021/11/06 02:41:17;;;;;;;19.73;10.60;;;6.50;1.00;;;;;;4999048;28;20453;-82
2021/11/06 02:43:43;;;;;;;33.57;11.33;;;6.40;1.00;;;;;;4996892;28;20192;-82
2021/11/06 02:46:09;;;;;;;17.97;10.00;;;6.40;1.00;;;;;;4993701;28;20470;-82
2021/11/06 02:48:34;;;;;;;28.37;11.30;;;6.50;1.00;;;;;;4984292;28;20208;-82
2021/11/06 02:51:00;;;;;;;25.13;9.60;;;6.50;1.00;;;;;;4991949;28;20184;-80
2021/11/06 02:53:25;;;;;;;18.80;9.47;;;6.50;1.00;;;;;;5002371;28;20219;-81
2021/11/06 02:55:51;;;;;;;23.20;10.03;;;6.50;1.00;;;;;;4998511;28;20544;-80
2021/11/06 02:58:17;;;;;;;13.70;8.10;;;6.50;1.00;;;;;;4998826;28;20211;-82
2021/11/06 03:00:42;;;;;;;18.27;10.07;;;6.50;1.00;;;;;;4991437;28;20718;-82
2021/11/06 03:03:08;;;;;;;27.20;10.87;;;6.50;1.00;;;;;;5005570;28;20269;-81
2021/11/06 03:05:34;;;;;;;21.07;9.00;;;6.60;1.00;;;;;;4995989;28;20215;-82
2021/11/06 03:07:59;;;;;;;17.50;9.57;;;6.50;1.00;;;;;;5001877;28;20218;-82
2021/11/06 03:10:25;;;;;;;21.13;9.93;;;6.60;1.00;;;;;;4998904;28;20902;-85
2021/11/06 03:12:51;;;;;;;18.13;9.03;;;6.50;1.00;;;;;;4988759;28;20214;-82
2021/11/06 03:15:17;;;;;;;20.13;9.17;;;6.60;1.00;;;;;;4999850;28;20970;-82
2021/11/06 03:17:43;;;;;;;18.90;9.10;;;6.70;1.00;;;;;;4996814;28;20280;-82
2021/11/06 03:20:10;;;;;;;19.80;9.83;;;6.60;1.00;;;;;;4994915;28;20187;-82
2021/11/06 03:22:36;;;;;;;21.00;9.90;;;6.60;1.00;;;;;;4998404;28;20450;-82
2021/11/06 03:25:03;;;;;;;19.37;9.77;;;6.50;1.00;;;;;;4997011;28;20985;-82
2021/11/06 03:27:28;;;;;;;16.90;9.10;;;6.50;1.00;;;;;;5002312;28;20241;-82
2021/11/06 03:29:55;;;;;;;19.27;9.67;;;6.50;1.00;;;;;;4999750;28;20450;-83
2021/11/06 03:32:20;;;;;;;18.53;11.13;;;6.50;1.00;;;;;;4997945;28;20424;-82
2021/11/06 03:34:47;;;;;;;19.20;10.23;;;6.60;1.00;;;;;;5007135;28;20508;-82
2021/11/06 03:37:13;;;;;;;18.03;9.87;;;6.50;1.00;;;;;;5002489;28;20192;-83
2021/11/06 03:39:42;;;;;;;16.77;10.80;;;6.50;1.00;;;;;;5000217;28;20486;-83
2021/11/06 03:42:07;;;;;;;18.77;10.43;;;6.60;1.00;;;;;;5000474;28;20482;-82
2021/11/06 03:44:34;;;;;;;17.57;11.30;;;6.50;1.00;;;;;;5001237;28;20533;-82
2021/11/06 03:47:01;;;;;;;19.70;12.30;;;6.50;1.00;;;;;;4995584;28;20471;-82
2021/11/06 03:49:26;;;;;;;25.40;12.50;;;6.50;1.00;;;;;;4990566;28;20461;-82
2021/11/06 03:51:52;;;;;;;23.73;13.40;;;6.40;1.00;;;;;;4987084;28;21095;-82
2021/11/06 03:54:18;;;;;;;23.47;12.10;;;6.40;1.00;;;;;;4989638;28;20227;-82
2021/11/06 03:56:44;;;;;;;24.20;12.30;;;6.40;1.00;;;;;;4990735;28;20442;-82
2021/11/06 03:59:09;;;;;;;23.00;14.27;;;6.40;1.00;;;;;;5000172;28;20295;-81
2021/11/06 04:01:35;;;;;;;18.73;11.77;;;6.30;1.00;;;;;;4997817;28;20241;-82
2021/11/06 04:04:02;;;;;;;26.57;13.17;;;6.40;1.00;;;;;;5003271;28;21092;-82
2021/11/06 04:06:28;;;;;;;20.53;13.07;;;6.40;1.00;;;;;;5003809;28;20216;-81
2021/11/06 04:08:54;;;;;;;20.53;13.20;;;6.30;1.00;;;;;;5006362;28;20497;-82
2021/11/06 04:11:21;;;;;;;22.87;14.00;;;6.30;1.00;;;;;;5001399;28;20553;-83
2021/11/06 04:13:48;;;;;;;17.60;12.73;;;6.20;1.00;;;;;;5003599;28;20481;-83
2021/11/06 04:16:14;;;;;;;18.93;13.60;;;6.30;1.00;;;;;;5001154;28;20804;-81
2021/11/06 04:18:40;;;;;;;23.27;12.27;;;6.30;1.00;;;;;;4996199;28;20466;-82
2021/11/06 04:21:06;;;;;;;19.87;12.43;;;6.30;1.00;;;;;;5004295;28;21303;-82
2021/11/06 04:23:32;;;;;;;27.17;12.23;;;6.30;1.00;;;;;;5003861;28;20180;-82
2021/11/06 04:25:59;;;;;;;22.80;11.60;;;6.30;1.00;;;;;;5004811;28;20465;-83
2021/11/06 04:28:25;;;;;;;25.93;12.70;;;6.30;1.00;;;;;;4991556;28;20263;-82
2021/11/06 04:30:50;;;;;;;22.00;12.50;;;6.30;1.00;;;;;;4992802;28;21184;-83
2021/11/06 04:33:16;;;;;;;36.00;12.50;;;6.30;1.00;;;;;;4989855;28;20486;-83
2021/11/06 04:35:42;;;;;;;25.73;13.17;;;6.30;1.00;;;;;;5001694;28;20354;-82
2021/11/06 04:38:08;;;;;;;19.53;11.10;;;6.30;1.00;;;;;;5000753;28;20207;-81
2021/11/06 04:40:34;;;;;;;23.00;10.10;;;6.30;1.00;;;;;;4992907;28;20442;-82
2021/11/06 04:43:02;;;;;;;20.60;10.47;;;6.40;1.00;;;;;;4995542;28;20180;-82
2021/11/06 04:45:28;;;;;;;14.40;9.37;;;6.40;1.00;;;;;;4980046;28;20446;-82
2021/11/06 04:47:54;;;;;;;19.43;10.57;;;6.30;1.00;;;;;;4999456;28;20180;-82
2021/11/06 04:50:20;;;;;;;17.50;9.50;;;6.40;1.00;;;;;;4990537;28;20970;-83
2021/11/06 04:52:46;;;;;;;14.13;9.43;;;6.40;1.00;;;;;;5007210;28;20190;-82
2021/11/06 04:55:14;;;;;;;22.77;10.17;;;6.40;1.00;;;;;;4997127;28;20459;-81
2021/11/06 04:57:40;;;;;;;16.77;9.70;;;6.50;1.00;;;;;;5007337;28;20549;-82
2021/11/06 05:00:09;;;;;;;16.03;8.43;;;6.40;1.00;;;;;;4990030;28;20453;-82
2021/11/06 05:02:35;;;;;;;19.10;9.73;;;6.50;1.00;;;;;;4990211;28;20946;-83
2021/11/06 05:05:01;;;;;;;13.90;8.60;;;6.50;1.00;;;;;;5000616;28;20727;-82
2021/11/06 05:07:26;;;;;;;16.83;9.50;;;6.50;1.00;;;;;;5003818;28;20546;-82
2021/11/06 05:09:55;;;;;;;18.47;10.47;;;6.60;1.00;;;;;;4996266;28;20226;-81
2021/11/06 05:12:22;;;;;;;17.53;9.20;;;6.50;1.00;;;;;;5000544;28;20847;-81
2021/11/06 05:14:48;;;;;;;13.17;7.57;;;6.50;1.00;;;;;;5001264;28;20490;-82
2021/11/06 05:17:19;;;;;;;14.00;8.40;;;6.50;1.00;;;;;;4993620;28;20514;-83
2021/11/06 05:19:49;;;;;;;12.67;8.10;;;6.60;1.00;;;;;;4990155;28;20477;-83
2021/11/06 05:22:15;;;;;;;18.40;8.13;;;6.60;1.00;;;;;;4991824;28;20512;-83
2021/11/06 05:24:41;;;;;;;18.10;6.93;;;6.60;1.00;;;;;;5002020;28;20459;-82
2021/11/06 05:27:07;;;;;;;14.93;7.87;;;6.50;1.00;;;;;;5011661;28;20743;-82
2021/11/06 05:29:33;;;;;;;13.80;8.03;;;6.50;1.00;;;;;;4998354;28;20459;-82
2021/11/06 05:31:59;;;;;;;17.80;9.00;;;6.50;1.00;;;;;;5002752;28;20491;-81
2021/11/06 05:34:26;;;;;;;14.57;9.13;;;6.40;1.00;;;;;;4994525;28;20630;-81
2021/11/06 05:36:52;;;;;;;10.90;7.03;;;6.50;1.00;;;;;;5002368;28;20450;-79
2021/11/06 05:39:17;;;;;;;15.43;9.40;;;6.40;1.00;;;;;;5008797;28;20468;-81
2021/11/06 05:41:43;;;;;;;12.40;8.40;;;6.30;1.00;;;;;;5010811;28;20668;-82
2021/11/06 05:44:09;;;;;;;11.67;8.03;;;6.30;1.00;;;;;;5009417;28;20560;-82
2021/11/06 05:46:35;;;;;;;16.33;9.37;;;6.40;1.00;;;;;;5000096;28;20451;-83
2021/11/06 05:49:01;;;;;;;12.97;8.57;;;6.40;1.00;;;;;;4999625;28;20475;-83
2021/11/06 05:51:29;;;;;;;15.20;8.20;;;6.40;1.00;;;;;;4998085;28;20533;-83
2021/11/06 05:53:55;;;;;;;27.17;9.37;;;6.30;1.00;;;;;;5006216;28;20221;-82
2021/11/06 05:56:21;;;;;;;15.10;8.80;;;6.40;1.00;;;;;;4993283;28;20472;-83
2021/11/06 05:58:47;;;;;;;16.97;8.90;;;6.40;1.00;;;;;;5004972;28;20192;-84
2021/11/06 06:01:12;;;;;;;19.00;10.00;;;6.40;1.00;;;;;;5000980;28;20188;-84
2021/11/06 06:03:38;;;;;;;15.50;8.73;;;6.30;1.00;;;;;;4997102;28;20470;-85
2021/11/06 06:06:04;;;;;;;14.80;9.43;;;6.30;1.00;;;;;;5018649;28;20184;-84
2021/11/06 06:08:30;;;;;;;22.13;9.70;;;6.20;1.00;;;;;;5009819;28;20454;-84
2021/11/06 06:10:56;;;;;;;15.83;10.20;;;6.30;1.00;;;;;;5008189;28;20179;-84
2021/11/06 06:13:22;;;;;;;16.13;10.03;;;6.30;1.00;;;;;;5005913;28;20208;-83
2021/11/06 06:15:47;;;;;;;21.13;9.80;;;6.20;1.00;;;;;;5000920;28;20758;-82
2021/11/06 06:18:14;;;;;;;21.00;9.27;;;6.20;1.00;;;;;;5005240;28;21101;-82
2021/11/06 06:20:39;;;;;;;14.40;10.00;;;6.20;1.00;;;;;;5003882;28;20223;-82
2021/11/06 06:23:05;;;;;;;21.43;9.70;;;6.20;1.00;;;;;;4997588;28;20526;-81
2021/11/06 06:25:31;;;;;;;17.87;10.70;;;6.10;1.00;;;;;;5001992;28;20728;-81
2021/11/06 06:27:57;;;;;;;16.13;9.93;;;6.10;1.00;;;;;;5008688;28;20207;-81
2021/11/06 06:30:25;;;;;;;17.87;9.73;;;6.20;1.00;;;;;;5003023;28;20498;-81
2021/11/06 06:32:51;;;;;;;16.40;9.50;;;6.10;1.00;;;;;;5001058;28;20581;-81
2021/11/06 06:35:16;;;;;;;17.43;9.90;;;6.20;1.00;;;;;;5005530;28;20813;-80
2021/11/06 06:37:42;;;;;;;17.70;10.83;;;6.20;1.00;;;;;;5004660;28;20648;-81
2021/11/06 06:40:09;;;;;;;17.37;9.77;;;6.30;1.00;;;;;;5000999;28;20640;-81
2021/11/06 06:42:36;;;;;;;19.23;10.43;;;6.20;1.00;;;;;;5000134;28;20187;-81
2021/11/06 06:45:03;;;;;;;17.00;10.57;;;6.20;1.00;;;;;;4994705;28;20454;-82
2021/11/06 06:47:30;;;;;;;22.80;11.53;;;6.10;1.00;;;;;;4996554;28;20454;-81
2021/11/06 06:49:56;;;;;;;18.50;10.70;;;6.10;1.00;;;;;;4997978;28;20501;-82
2021/11/06 06:52:22;;;;;;;18.83;10.90;;;6.10;1.00;;;;;;5000940;28;22230;-81
2021/11/06 06:54:47;;;;;;;17.40;10.27;;;6.20;1.00;;;;;;4995258;28;21136;-81
2021/11/06 06:57:13;;;;;;;17.23;9.33;;;6.20;1.00;;;;;;5004531;28;20892;-81
2021/11/06 06:59:39;;;;;;;20.40;10.73;;;6.20;1.00;;;;;;5000691;28;20199;-80
2021/11/06 07:02:06;;;;;;;24.30;10.83;;;6.20;1.00;;;;;;4990582;28;20199;-81
2021/11/06 07:04:32;;;;;;;22.97;10.80;;;6.30;1.00;;;;;;5000163;28;20211;-80
2021/11/06 07:06:58;;;;;;;17.57;11.90;;;6.40;1.00;;;;;;5004775;28;20462;-80
2021/11/06 07:09:24;;;;;;;17.50;10.60;;;6.40;1.00;;;;;;4998448;28;20466;-80
2021/11/06 07:11:51;;;;;;;19.60;10.63;;;6.40;1.00;;;;;;4990903;28;20226;-81
2021/11/06 07:14:20;;;;;;;22.23;10.83;;;6.50;1.00;;;;;;4996923;28;20519;-80
2021/11/06 07:16:46;;;;;;;16.83;10.20;;;6.50;1.00;;;;;;4993726;28;20445;-80
2021/11/06 07:19:12;;;;;;;19.77;9.50;;;6.50;1.00;;;;;;4991326;28;20473;-80
2021/11/06 07:21:38;;;;;;;17.23;10.13;;;6.60;1.00;;;;;;4992894;28;20503;-80
2021/11/06 07:24:07;;;;;;;21.63;9.30;;;6.50;1.00;;;;;;4985783;28;20466;-81
2021/11/06 07:26:33;;;;;;;10.47;7.87;;;6.60;1.00;;;;;;4993175;28;20185;-81
2021/11/06 07:28:59;;;;;;;14.37;8.80;;;6.70;1.00;;;;;;5003507;28;20738;-81
2021/11/06 07:31:26;;;;;;;17.03;9.93;;;6.70;1.00;;;;;;4990585;28;20558;-81
2021/11/06 07:33:53;;;;;;;16.47;8.70;;;6.60;1.00;;;;;;4990902;28;20489;-78
2021/11/06 07:36:19;;;;;;;21.20;9.37;;;6.60;1.00;;;;;;4992763;28;20511;-78
2021/11/06 07:38:44;;;;;;;12.83;9.07;;;6.60;1.00;;;;;;4996784;28;20465;-79
2021/11/06 07:41:11;;;;;;;14.40;8.43;;;6.70;1.00;;;;;;4996007;28;20184;-80
2021/11/06 07:43:38;;;;;;;20.00;9.13;;;6.70;1.00;;;;;;4991086;28;20187;-80
2021/11/06 07:46:04;;;;;;;14.00;8.30;;;6.80;1.00;;;;;;4993124;28;20446;-81
2021/11/06 07:48:31;;;;;;;13.33;8.17;;;6.90;1.00;;;;;;4995047;28;20617;-81
2021/11/06 07:51:00;;;;;;;11.77;7.70;;;7.00;1.00;;;;;;4987408;28;20808;-82
2021/11/06 07:53:26;;;;;;;12.10;8.00;;;7.10;1.00;;;;;;4991174;28;20514;-80
2021/11/06 07:55:52;;;;;;;13.10;7.10;;;7.20;1.00;;;;;;4998473;28;20865;-80
2021/11/06 07:58:18;;;;;;;13.53;7.30;;;7.30;1.00;;;;;;4998474;28;20191;-81
2021/11/06 08:00:43;;;;;;;10.77;8.80;;;7.30;1.00;;;;;;4997680;28;20459;-80
2021/11/06 08:03:09;;;;;;;12.63;8.07;;;7.30;1.00;;;;;;5003605;28;20283;-83
2021/11/06 08:05:35;;;;;;;14.03;8.23;;;7.30;1.00;;;;;;4994733;28;20204;-79
2021/11/06 08:08:02;;;;;;;17.63;7.60;;;7.20;1.00;;;;;;4996318;28;20849;-78
2021/11/06 08:10:28;;;;;;;12.57;7.37;;;7.20;1.00;;;;;;4979572;28;20471;-79
2021/11/06 08:12:56;;;;;;;18.03;8.37;;;7.20;1.00;;;;;;4991714;28;20453;-79
2021/11/06 08:15:24;;;;;;;14.17;8.30;;;7.30;1.00;;;;;;4997057;28;21006;-79
2021/11/06 08:17:50;;;;;;;9.97;7.67;;;7.30;1.00;;;;;;4985617;28;20482;-79
2021/11/06 08:20:16;;;;;;;11.50;7.97;;;7.40;1.00;;;;;;4991466;28;20593;-80
2021/11/06 08:22:42;;;;;;;12.47;8.00;;;7.60;1.00;;;;;;4981929;28;21022;-79
2021/11/06 08:25:15;;;;;;;17.13;8.87;;;7.50;1.00;;;;;;4985871;28;20278;-79
2021/11/06 08:27:45;;;;;;;12.30;8.63;;;7.40;1.00;;;;;;4986155;28;20180;-78
2021/11/06 08:30:11;;;;;;;16.00;9.07;;;7.40;1.00;;;;;;4990382;28;20870;-79
2021/11/06 08:32:37;;;;;;;42.17;10.77;;;7.40;1.00;;;;;;4989337;28;21678;-75
2021/11/06 08:35:03;;;;;;;12.77;8.73;;;7.90;1.00;;;;;;4996779;28;20851;-75
2021/11/06 08:37:32;;;;;;;11.47;8.07;;;8.40;1.00;;;;;;5001208;28;20184;-80
2021/11/06 08:39:58;;;;;;;10.40;6.90;;;8.30;1.00;;;;;;5006651;28;20537;-77
2021/11/06 08:42:24;;;;;;;17.80;8.20;;;8.00;1.00;;;;;;4988057;28;21074;-86
2021/11/06 08:44:49;;;;;;;13.67;7.03;;;8.30;1.00;;;;;;4959058;28;20533;-81
2021/11/06 08:47:15;;;;;;;19.23;8.00;;;8.20;1.00;;;;;;4996951;28;20600;-75
2021/11/06 08:49:43;;;;;;;12.13;7.83;;;8.80;1.00;;;;;;5003235;28;20199;-90
2021/11/06 08:52:09;;;;;;;24.37;8.03;;;9.10;1.00;;;;;;5000445;28;20302;-74
2021/11/06 08:54:35;;;;;;;15.37;7.10;;;9.60;1.00;;;;;;4996044;28;20490;-73
2021/11/06 08:57:01;;;;;;;13.53;6.93;;;10.00;1.00;;;;;;5000174;28;20481;-80
2021/11/06 08:59:27;;;;;;;23.70;8.23;;;10.20;1.00;;;;;;4992782;28;21252;-76
2021/11/06 09:01:54;;;;;;;9.80;7.33;;;10.10;1.00;;;;;;4990899;28;21010;-74
2021/11/06 09:04:24;;;;;;;9.17;6.07;;;9.60;1.00;;;;;;4993712;28;20211;-75
2021/11/06 09:06:51;;;;;;;9.00;6.60;;;9.10;1.00;;;;;;4993387;28;20486;-75
2021/11/06 09:09:17;;;;;;;9.10;6.67;;;8.80;1.00;;;;;;5001249;28;20449;-76
2021/11/06 09:11:46;;;;;;;11.97;7.17;;;8.60;1.00;;;;;;5005217;28;20447;-75
2021/11/06 09:14:14;;;;;;;15.27;7.77;;;8.60;1.00;;;;;;4992836;28;20219;-75
2021/11/06 09:16:40;;;;;;;13.17;6.60;;;8.60;1.00;;;;;;4991808;28;20553;-73
2021/11/06 09:19:08;;;;;;;13.30;6.83;;;8.60;1.00;;;;;;4999328;28;20527;-74
2021/11/06 09:21:34;;;;;;;12.00;6.07;;;8.70;1.00;;;;;;4999525;28;20450;-74
2021/11/06 09:24:03;;;;;;;12.70;6.70;;;8.80;1.00;;;;;;5004579;28;21448;-74
2021/11/06 09:26:40;;;;;;;9.10;6.67;;;8.90;1.00;;;;;;5003397;28;21197;-75
2021/11/06 09:29:07;;;;;;;13.63;6.80;;;8.80;1.00;;;;;;5000096;28;20515;-75
2021/11/06 09:31:34;;;;;;;8.70;6.37;;;8.80;1.00;;;;;;5002218;28;20533;-75
2021/11/06 09:33:59;;;;;;;9.90;6.23;;;8.80;1.00;;;;;;5000578;28;20500;-75
2021/11/06 09:36:28;;;;;;;8.30;5.90;;;8.70;1.00;;;;;;4997768;28;20438;-75
2021/11/06 09:38:54;;;;;;;7.87;6.00;;;8.70;1.00;;;;;;5003928;28;21044;-75
2021/11/06 09:41:21;;;;;;;15.33;6.50;;;8.60;1.00;;;;;;5000558;28;20549;-75
2021/11/06 09:43:47;;;;;;;7.23;6.30;;;8.50;1.00;;;;;;5002608;28;20451;-76
2021/11/06 09:46:14;;;;;;;9.50;6.63;;;8.60;1.00;;;;;;4989259;28;20442;-75
2021/11/06 09:48:45;;;;;;;10.90;5.80;;;8.50;1.00;;;;;;4994563;28;20454;-76
2021/11/06 09:51:14;;;;;;;11.70;5.93;;;8.60;1.00;;;;;;4997255;28;20862;-75
2021/11/06 09:53:42;;;;;;;16.43;5.90;;;8.40;1.00;;;;;;5008994;28;20504;-75
2021/11/06 09:56:09;;;;;;;10.90;6.60;;;8.50;1.00;;;;;;5002925;28;20537;-76
2021/11/06 09:58:35;;;;;;;11.23;6.10;;;8.60;1.00;;;;;;4994094;28;20523;-75
2021/11/06 10:01:01;;;;;;;8.93;5.20;;;8.70;1.00;;;;;;4987753;28;20450;-75
2021/11/06 10:03:27;;;;;;;12.27;6.80;;;8.70;1.00;;;;;;5005978;28;20570;-75
2021/11/06 10:06:01;;;;;;;11.73;6.40;;;8.60;1.00;;;;;;4997536;28;21028;-75
2021/11/06 10:08:38;;;;;;;11.83;6.47;;;8.50;1.00;;;;;;4994902;28;20358;-75
2021/11/06 10:11:27;;;;;;;7.47;5.53;;;8.50;1.00;;;;;;4987357;28;20539;-75
2021/11/06 10:14:05;;;;;;;8.90;5.73;;;8.60;1.00;;;;;;4997261;28;20543;-75
2021/11/06 10:16:42;;;;;;;9.30;6.40;;;8.80;1.00;;;;;;5002061;28;20989;-75
2021/11/06 10:19:10;;;;;;;12.33;6.63;;;8.80;1.00;;;;;;5012108;28;21253;-75
2021/11/06 10:21:38;;;;;;;6.93;5.60;;;9.00;1.00;;;;;;4997754;28;20455;-75
2021/11/06 10:24:04;;;;;;;7.20;5.50;;;8.80;1.00;;;;;;5001391;28;20443;-75
2021/11/06 10:26:31;;;;;;;10.53;5.73;;;8.70;1.00;;;;;;5008778;28;20718;-75
2021/11/06 10:29:07;;;;;;;9.73;6.70;;;8.70;1.00;;;;;;5016294;28;20997;-75
2021/11/06 10:31:49;;;;;;;10.93;6.20;;;8.80;1.00;;;;;;5004014;28;20458;-74
2021/11/06 10:34:15;;;;;;;11.30;6.00;;;8.80;1.00;;;;;;4998204;28;20592;-74
2021/11/06 10:36:41;;;;;;;8.40;6.10;;;8.90;1.00;;;;;;5016080;28;20914;-75
2021/11/06 10:39:11;;;;;;;12.10;6.37;;;9.00;1.00;;;;;;5005604;28;20202;-75
2021/11/06 10:41:41;;;;;;;9.10;6.33;;;9.10;1.00;;;;;;5010222;28;20548;-74
2021/11/06 10:44:07;;;;;;;9.37;6.17;;;9.20;1.00;;;;;;4998191;28;20577;-74
2021/11/06 10:46:34;;;;;;;14.93;5.87;;;9.10;1.00;;;;;;5001879;28;20443;-74
2021/11/06 10:49:02;;;;;;;10.53;7.07;;;9.10;1.00;;;;;;5004311;28;20747;-76
2021/11/06 10:51:28;;;;;;;7.70;5.70;;;9.00;1.00;;;;;;4997905;28;20541;-75
2021/11/06 10:53:59;;;;;;;9.50;6.70;;;9.10;1.00;;;;;;5001384;28;21098;-75
2021/11/06 10:56:38;;;;;;;10.13;5.00;;;9.10;1.00;;;;;;5015076;28;20302;-75
2021/11/06 10:59:15;;;;;;;10.20;6.00;;;9.10;1.00;;;;;;5004676;28;20455;-74
2021/11/06 11:01:45;;;;;;;8.90;5.40;;;9.20;1.00;;;;;;5008353;28;20534;-75
2021/11/06 11:04:17;;;;;;;8.47;6.07;;;9.40;1.00;;;;;;5005044;28;20916;-75
2021/11/06 11:06:46;;;;;;;9.60;5.50;;;9.60;1.00;;;;;;5010472;28;20449;-75
2021/11/06 11:09:21;;;;;;;8.00;5.60;;;9.80;1.00;;;;;;5000430;28;20475;-75
2021/11/06 11:11:51;;;;;;;10.50;5.80;;;9.90;1.00;;;;;;5002835;28;20544;-75
2021/11/06 11:14:25;;;;;;;11.03;5.77;;;10.10;1.00;;;;;;5008980;28;20526;-75
2021/11/06 11:17:00;;;;;;;7.33;6.00;;;10.10;1.00;;;;;;5000497;28;20457;-76
2021/11/06 11:19:37;;;;;;;9.37;5.03;;;10.20;1.00;;;;;;5001704;28;20478;-76
2021/11/06 11:22:04;;;;;;;5.70;5.10;;;10.10;1.00;;;;;;5006685;28;20458;-76
2021/11/06 11:24:30;;;;;;;6.47;4.60;;;10.00;1.00;;;;;;5006853;28;20794;-76
2021/11/06 11:26:57;;;;;;;7.93;5.30;;;9.80;1.00;;;;;;5001181;28;20458;-75
2021/11/06 11:29:36;;;;;;;8.10;5.67;;;9.80;1.00;;;;;;5008381;28;20464;-74
2021/11/06 11:32:03;;;;;;;7.83;5.03;;;9.80;1.00;;;;;;5001994;28;20458;-75
2021/11/06 11:34:29;;;;;;;27.00;6.17;;;9.70;1.00;;;;;;4992193;28;20508;-74
2021/11/06 11:36:55;;;;;;;17.53;6.33;;;10.60;1.00;;;;;;5000310;28;20454;-82
2021/11/06 11:39:24;;;;;;;25.17;5.50;;;11.40;1.00;;;;;;5000354;28;20191;-74
2021/11/06 11:42:15;;;;;;;19.17;5.00;;;11.90;1.00;;;;;;4999813;28;20444;-81
2021/11/06 11:45:12;;;;;;;8.73;4.57;;;12.00;1.00;;;;;;4993876;28;21520;-76
2021/11/06 11:47:51;;;;;;;9.07;4.70;;;10.80;1.00;;;;;;4991203;28;20958;-75
2021/11/06 11:50:23;;;;;;;7.63;5.20;;;10.20;1.00;;;;;;4988797;28;20466;-75
2021/11/06 11:52:51;;;;;;;8.27;5.80;;;9.90;1.00;;;;;;4995544;28;20469;-76
2021/11/06 11:55:33;;;;;;;8.27;6.20;;;9.70;1.00;;;;;;4997704;28;20461;-75
2021/11/06 11:58:15;;;;;;;6.40;5.10;;;9.80;1.00;;;;;;4998862;28;20458;-74
2021/11/06 12:00:42;;;;;;;8.20;5.80;;;9.90;1.00;;;;;;4996926;28;20457;-76
2021/11/06 12:03:10;;;;;;;9.80;5.97;;;9.90;1.00;;;;;;4995344;28;21018;-74
2021/11/06 12:05:43;;;;;;;8.20;5.50;;;10.10;1.00;;;;;;5000539;28;20476;-75
2021/11/06 12:08:09;;;;;;;10.00;6.57;;;10.20;1.00;;;;;;5011838;28;20541;-75
2021/11/06 12:11:00;;;;;;;5.60;5.10;;;10.30;1.00;;;;;;5004721;28;20988;-75
2021/11/06 12:13:28;;;;;;;7.60;5.20;;;10.30;1.00;;;;;;5003211;28;20219;-74
2021/11/06 12:16:04;;;;;;;7.63;4.97;;;10.40;1.00;;;;;;4994530;28;21388;-76
2021/11/06 12:18:53;;;;;;;7.57;5.10;;;10.30;1.00;;;;;;5001132;28;20449;-75
2021/11/06 12:22:04;;;;;;;631.43;203.33;;;10.30;1.00;;;;;;5006239;28;20470;-77
2021/11/06 12:24:29;;;;;;;6.30;4.93;;;10.60;1.00;;;;;;4976360;28;20556;-75
2021/11/06 12:27:01;;;;;;;6.70;4.20;;;10.40;1.00;;;;;;4997191;28;20895;-76
2021/11/06 12:29:31;;;;;;;4.30;3.27;;;10.20;1.00;;;;;;4998201;28;20179;-74
2021/11/06 12:32:13;;;;;;;5.70;3.80;;;10.30;1.00;;;;;;4996985;28;20446;-76
2021/11/06 12:35:01;;;;;;;5.67;3.20;;;10.30;1.00;;;;;;4994531;28;20600;-76
2021/11/06 12:37:39;;;;;;;7.37;3.47;;;10.30;1.00;;;;;;4998346;28;20459;-75
2021/11/06 12:40:05;;;;;;;6.30;4.20;;;10.30;1.00;;;;;;5001109;28;20450;-74
2021/11/06 12:42:31;;;;;;;8.23;3.23;;;10.40;1.00;;;;;;4992002;28;21484;-74
2021/11/06 12:45:04;;;;;;;6.53;3.87;;;10.50;1.00;;;;;;4992030;28;21347;-75
2021/11/06 12:47:33;;;;;;;4.13;2.60;;;10.50;1.00;;;;;;5005848;28;21153;-75
2021/11/06 12:50:13;;;;;;;7.20;3.77;;;10.50;1.00;;;;;;5000255;28;25013;-74
2021/11/06 12:52:43;;;;;;;7.33;3.60;;;10.60;1.00;;;;;;5002866;28;20469;-76
2021/11/06 12:55:09;;;;;;;3.90;2.90;;;10.70;1.00;;;;;;5001774;28;20509;-75
2021/11/06 12:57:37;;;;;;;10.93;2.83;;;10.80;1.00;;;;;;5002732;28;20534;-75